sensor_id;sensor_type;location;lat;lon;timestamp;P1;durP1;ratioP1;P2;durP2;ratioP2
31966;SDS011;18496;52.042;6.812;2023-06-22T00:00:14;14.27;;;10.52;;
31966;SDS011;18496;52.042;6.812;2023-06-22T00:02:18;14.70;;;10.30;;
31966;SDS011;18496;52.042;6.812;2023-06-22T00:04:22;13.88;;;10.43;;
31966;SDS011;18496;52.042;6.812;2023-06-22T00:06:25;15.65;;;10.63;;
31966;SDS011;18496;52.042;6.812;2023-06-22T00:08:29;14.50;;;10.20;;
31966;SDS011;18496;52.042;6.812;2023-06-22T00:10:32;15.20;;;10.68;;
31966;SDS011;18496;52.042;6.812;2023-06-22T00:12:36;13.90;;;10.23;;
31966;SDS011;18496;52.042;6.812;2023-06-22T00:14:40;15.52;;;10.57;;
31966;SDS011;18496;52.042;6.812;2023-06-22T00:16:44;12.75;;;10.07;;
31966;SDS011;18496;52.042;6.812;2023-06-22T00:18:51;17.48;;;10.63;;
31966;SDS011;18496;52.042;6.812;2023-06-22T00:20:55;14.02;;;10.57;;
31966;SDS011;18496;52.042;6.812;2023-06-22T00:23:00;17.38;;;11.10;;
31966;SDS011;18496;52.042;6.812;2023-06-22T00:25:07;13.45;;;11.18;;
31966;SDS011;18496;52.042;6.812;2023-06-22T00:27:11;16.80;;;11.18;;
31966;SDS011;18496;52.042;6.812;2023-06-22T00:29:15;16.23;;;10.90;;
31966;SDS011;18496;52.042;6.812;2023-06-22T00:31:18;16.73;;;11.85;;
31966;SDS011;18496;52.042;6.812;2023-06-22T00:33:22;15.52;;;11.40;;
31966;SDS011;18496;52.042;6.812;2023-06-22T00:35:26;19.17;;;12.15;;
31966;SDS011;18496;52.042;6.812;2023-06-22T00:37:32;13.27;;;11.00;;
31966;SDS011;18496;52.042;6.812;2023-06-22T00:39:36;17.05;;;12.05;;
31966;SDS011;18496;52.042;6.812;2023-06-22T00:41:39;18.40;;;11.77;;
31966;SDS011;18496;52.042;6.812;2023-06-22T00:43:43;17.70;;;12.00;;
31966;SDS011;18496;52.042;6.812;2023-06-22T00:45:46;15.73;;;11.55;;
31966;SDS011;18496;52.042;6.812;2023-06-22T00:47:51;15.25;;;11.20;;
31966;SDS011;18496;52.042;6.812;2023-06-22T00:49:55;19.88;;;12.70;;
31966;SDS011;18496;52.042;6.812;2023-06-22T00:51:59;18.40;;;11.48;;
31966;SDS011;18496;52.042;6.812;2023-06-22T00:54:04;15.82;;;11.32;;
31966;SDS011;18496;52.042;6.812;2023-06-22T00:56:09;14.68;;;10.70;;
31966;SDS011;18496;52.042;6.812;2023-06-22T00:58:15;17.88;;;11.55;;
31966;SDS011;18496;52.042;6.812;2023-06-22T01:00:19;17.42;;;11.68;;
31966;SDS011;18496;52.042;6.812;2023-06-22T01:02:23;16.45;;;11.45;;
31966;SDS011;18496;52.042;6.812;2023-06-22T01:04:34;17.27;;;12.02;;
31966;SDS011;18496;52.042;6.812;2023-06-22T01:06:41;15.23;;;11.05;;
31966;SDS011;18496;52.042;6.812;2023-06-22T01:09:06;16.45;;;11.48;;
31966;SDS011;18496;52.042;6.812;2023-06-22T01:11:28;13.45;;;10.85;;
31966;SDS011;18496;52.042;6.812;2023-06-22T01:16:11;15.13;;;10.77;;
31966;SDS011;18496;52.042;6.812;2023-06-22T01:18:20;14.02;;;11.02;;
31966;SDS011;18496;52.042;6.812;2023-06-22T01:20:28;15.15;;;11.70;;
31966;SDS011;18496;52.042;6.812;2023-06-22T01:22:38;17.45;;;12.27;;
31966;SDS011;18496;52.042;6.812;2023-06-22T01:29:45;13.45;;;10.48;;
31966;SDS011;18496;52.042;6.812;2023-06-22T01:31:49;18.30;;;12.45;;
31966;SDS011;18496;52.042;6.812;2023-06-22T01:33:57;16.70;;;12.32;;
31966;SDS011;18496;52.042;6.812;2023-06-22T01:36:04;16.45;;;11.60;;
31966;SDS011;18496;52.042;6.812;2023-06-22T01:38:09;19.63;;;12.60;;
31966;SDS011;18496;52.042;6.812;2023-06-22T01:40:13;19.30;;;13.38;;
31966;SDS011;18496;52.042;6.812;2023-06-22T01:42:18;19.27;;;13.18;;
31966;SDS011;18496;52.042;6.812;2023-06-22T01:44:22;25.70;;;12.43;;
31966;SDS011;18496;52.042;6.812;2023-06-22T01:46:28;17.77;;;12.50;;
31966;SDS011;18496;52.042;6.812;2023-06-22T01:48:32;18.20;;;13.27;;
31966;SDS011;18496;52.042;6.812;2023-06-22T01:50:38;17.02;;;12.45;;
31966;SDS011;18496;52.042;6.812;2023-06-22T01:52:42;19.90;;;12.90;;
31966;SDS011;18496;52.042;6.812;2023-06-22T01:54:46;18.45;;;13.18;;
31966;SDS011;18496;52.042;6.812;2023-06-22T01:56:51;25.73;;;13.18;;
31966;SDS011;18496;52.042;6.812;2023-06-22T01:59:37;18.48;;;13.27;;
31966;SDS011;18496;52.042;6.812;2023-06-22T02:01:50;22.92;;;13.45;;
31966;SDS011;18496;52.042;6.812;2023-06-22T02:04:05;18.77;;;13.07;;
31966;SDS011;18496;52.042;6.812;2023-06-22T02:06:16;18.55;;;13.35;;
31966;SDS011;18496;52.042;6.812;2023-06-22T02:08:28;18.20;;;13.43;;
31966;SDS011;18496;52.042;6.812;2023-06-22T02:10:40;20.13;;;13.55;;
31966;SDS011;18496;52.042;6.812;2023-06-22T02:12:44;21.15;;;13.35;;
31966;SDS011;18496;52.042;6.812;2023-06-22T02:14:50;16.15;;;14.18;;
31966;SDS011;18496;52.042;6.812;2023-06-22T02:16:55;19.95;;;13.95;;
31966;SDS011;18496;52.042;6.812;2023-06-22T02:19:02;18.35;;;13.32;;
31966;SDS011;18496;52.042;6.812;2023-06-22T02:21:06;18.48;;;13.13;;
31966;SDS011;18496;52.042;6.812;2023-06-22T02:23:10;21.67;;;14.40;;
31966;SDS011;18496;52.042;6.812;2023-06-22T02:25:14;19.10;;;13.98;;
31966;SDS011;18496;52.042;6.812;2023-06-22T02:27:17;18.00;;;13.02;;
31966;SDS011;18496;52.042;6.812;2023-06-22T02:29:21;17.98;;;14.77;;
31966;SDS011;18496;52.042;6.812;2023-06-22T02:31:25;22.17;;;14.15;;
31966;SDS011;18496;52.042;6.812;2023-06-22T02:33:33;21.55;;;14.25;;
31966;SDS011;18496;52.042;6.812;2023-06-22T02:35:37;22.00;;;14.27;;
31966;SDS011;18496;52.042;6.812;2023-06-22T02:37:41;21.40;;;15.10;;
31966;SDS011;18496;52.042;6.812;2023-06-22T02:39:44;19.42;;;14.50;;
31966;SDS011;18496;52.042;6.812;2023-06-22T02:41:49;18.20;;;14.80;;
31966;SDS011;18496;52.042;6.812;2023-06-22T02:43:52;22.58;;;14.88;;
31966;SDS011;18496;52.042;6.812;2023-06-22T02:45:56;22.90;;;15.15;;
31966;SDS011;18496;52.042;6.812;2023-06-22T02:48:00;24.88;;;15.85;;
31966;SDS011;18496;52.042;6.812;2023-06-22T02:50:05;19.17;;;14.38;;
31966;SDS011;18496;52.042;6.812;2023-06-22T02:52:11;25.17;;;15.75;;
31966;SDS011;18496;52.042;6.812;2023-06-22T02:54:15;21.98;;;15.68;;
31966;SDS011;18496;52.042;6.812;2023-06-22T02:56:19;21.40;;;15.60;;
31966;SDS011;18496;52.042;6.812;2023-06-22T02:58:32;29.38;;;15.68;;
31966;SDS011;18496;52.042;6.812;2023-06-22T03:00:42;20.27;;;14.60;;
31966;SDS011;18496;52.042;6.812;2023-06-22T03:02:46;25.15;;;15.68;;
31966;SDS011;18496;52.042;6.812;2023-06-22T03:04:51;20.88;;;15.65;;
31966;SDS011;18496;52.042;6.812;2023-06-22T03:06:57;20.65;;;15.57;;
31966;SDS011;18496;52.042;6.812;2023-06-22T03:09:04;19.73;;;15.77;;
31966;SDS011;18496;52.042;6.812;2023-06-22T03:11:10;20.08;;;15.35;;
31966;SDS011;18496;52.042;6.812;2023-06-22T03:13:13;23.30;;;15.40;;
31966;SDS011;18496;52.042;6.812;2023-06-22T03:15:18;22.75;;;16.50;;
31966;SDS011;18496;52.042;6.812;2023-06-22T03:17:21;22.98;;;17.30;;
31966;SDS011;18496;52.042;6.812;2023-06-22T03:19:25;23.38;;;16.40;;
31966;SDS011;18496;52.042;6.812;2023-06-22T03:21:28;21.98;;;16.55;;
31966;SDS011;18496;52.042;6.812;2023-06-22T03:23:32;26.58;;;17.35;;
31966;SDS011;18496;52.042;6.812;2023-06-22T03:25:36;24.02;;;16.42;;
31966;SDS011;18496;52.042;6.812;2023-06-22T03:27:41;20.80;;;16.40;;
31966;SDS011;18496;52.042;6.812;2023-06-22T03:29:46;27.95;;;16.88;;
31966;SDS011;18496;52.042;6.812;2023-06-22T03:31:50;23.15;;;15.90;;
31966;SDS011;18496;52.042;6.812;2023-06-22T03:33:54;26.58;;;16.90;;
31966;SDS011;18496;52.042;6.812;2023-06-22T03:36:00;24.48;;;16.23;;
31966;SDS011;18496;52.042;6.812;2023-06-22T03:38:03;22.88;;;16.77;;
31966;SDS011;18496;52.042;6.812;2023-06-22T03:40:08;26.48;;;17.05;;
31966;SDS011;18496;52.042;6.812;2023-06-22T03:42:12;23.50;;;17.00;;
31966;SDS011;18496;52.042;6.812;2023-06-22T03:44:17;23.80;;;16.55;;
31966;SDS011;18496;52.042;6.812;2023-06-22T03:46:20;23.85;;;16.75;;
31966;SDS011;18496;52.042;6.812;2023-06-22T03:48:24;26.10;;;16.80;;
31966;SDS011;18496;52.042;6.812;2023-06-22T03:50:27;21.10;;;16.42;;
31966;SDS011;18496;52.042;6.812;2023-06-22T03:52:31;24.38;;;16.40;;
31966;SDS011;18496;52.042;6.812;2023-06-22T03:54:35;23.63;;;17.13;;
31966;SDS011;18496;52.042;6.812;2023-06-22T03:56:39;21.95;;;15.88;;
31966;SDS011;18496;52.042;6.812;2023-06-22T03:58:43;24.15;;;17.10;;
31966;SDS011;18496;52.042;6.812;2023-06-22T04:00:48;25.33;;;17.45;;
31966;SDS011;18496;52.042;6.812;2023-06-22T04:02:53;23.25;;;16.83;;
31966;SDS011;18496;52.042;6.812;2023-06-22T04:04:56;22.60;;;16.83;;
31966;SDS011;18496;52.042;6.812;2023-06-22T04:07:00;21.05;;;15.98;;
31966;SDS011;18496;52.042;6.812;2023-06-22T04:09:05;23.27;;;16.88;;
31966;SDS011;18496;52.042;6.812;2023-06-22T04:11:09;23.80;;;16.33;;
31966;SDS011;18496;52.042;6.812;2023-06-22T04:13:13;22.00;;;16.13;;
31966;SDS011;18496;52.042;6.812;2023-06-22T04:15:16;20.25;;;13.85;;
31966;SDS011;18496;52.042;6.812;2023-06-22T04:17:20;27.88;;;15.95;;
31966;SDS011;18496;52.042;6.812;2023-06-22T04:19:24;23.20;;;16.40;;
31966;SDS011;18496;52.042;6.812;2023-06-22T04:21:28;22.13;;;15.95;;
31966;SDS011;18496;52.042;6.812;2023-06-22T04:23:31;27.25;;;15.82;;
31966;SDS011;18496;52.042;6.812;2023-06-22T04:25:35;23.33;;;15.60;;
31966;SDS011;18496;52.042;6.812;2023-06-22T04:27:38;24.83;;;16.80;;
31966;SDS011;18496;52.042;6.812;2023-06-22T04:29:43;26.65;;;16.73;;
31966;SDS011;18496;52.042;6.812;2023-06-22T04:31:51;23.92;;;16.02;;
31966;SDS011;18496;52.042;6.812;2023-06-22T04:33:56;22.45;;;14.68;;
31966;SDS011;18496;52.042;6.812;2023-06-22T04:35:59;23.67;;;15.68;;
31966;SDS011;18496;52.042;6.812;2023-06-22T04:38:07;20.20;;;15.27;;
31966;SDS011;18496;52.042;6.812;2023-06-22T04:40:11;21.20;;;14.88;;
31966;SDS011;18496;52.042;6.812;2023-06-22T04:42:17;18.67;;;14.70;;
31966;SDS011;18496;52.042;6.812;2023-06-22T04:44:21;19.10;;;13.90;;
31966;SDS011;18496;52.042;6.812;2023-06-22T04:46:27;22.85;;;14.65;;
31966;SDS011;18496;52.042;6.812;2023-06-22T04:48:31;22.08;;;16.00;;
31966;SDS011;18496;52.042;6.812;2023-06-22T04:50:37;20.88;;;15.25;;
31966;SDS011;18496;52.042;6.812;2023-06-22T04:52:42;27.52;;;16.10;;
31966;SDS011;18496;52.042;6.812;2023-06-22T04:54:45;23.00;;;15.80;;
31966;SDS011;18496;52.042;6.812;2023-06-22T04:56:53;20.45;;;14.68;;
31966;SDS011;18496;52.042;6.812;2023-06-22T04:58:59;21.17;;;14.50;;
31966;SDS011;18496;52.042;6.812;2023-06-22T05:01:03;27.00;;;16.83;;
31966;SDS011;18496;52.042;6.812;2023-06-22T05:03:07;23.13;;;15.98;;
31966;SDS011;18496;52.042;6.812;2023-06-22T05:05:14;18.23;;;13.85;;
31966;SDS011;18496;52.042;6.812;2023-06-22T05:07:18;21.77;;;15.48;;
31966;SDS011;18496;52.042;6.812;2023-06-22T05:09:22;19.25;;;15.25;;
31966;SDS011;18496;52.042;6.812;2023-06-22T05:11:26;21.35;;;14.43;;
31966;SDS011;18496;52.042;6.812;2023-06-22T05:13:31;22.40;;;15.73;;
31966;SDS011;18496;52.042;6.812;2023-06-22T05:15:34;23.05;;;15.95;;
31966;SDS011;18496;52.042;6.812;2023-06-22T05:17:43;23.05;;;14.77;;
31966;SDS011;18496;52.042;6.812;2023-06-22T05:19:48;19.75;;;15.07;;
31966;SDS011;18496;52.042;6.812;2023-06-22T05:21:51;26.38;;;16.92;;
31966;SDS011;18496;52.042;6.812;2023-06-22T05:23:55;25.33;;;17.33;;
31966;SDS011;18496;52.042;6.812;2023-06-22T05:26:03;20.33;;;15.07;;
31966;SDS011;18496;52.042;6.812;2023-06-22T05:28:06;21.55;;;15.27;;
31966;SDS011;18496;52.042;6.812;2023-06-22T05:30:14;22.92;;;15.63;;
31966;SDS011;18496;52.042;6.812;2023-06-22T05:32:19;39.05;;;16.00;;
31966;SDS011;18496;52.042;6.812;2023-06-22T05:34:23;18.40;;;14.05;;
31966;SDS011;18496;52.042;6.812;2023-06-22T05:36:27;20.45;;;15.20;;
31966;SDS011;18496;52.042;6.812;2023-06-22T05:38:31;21.70;;;14.27;;
31966;SDS011;18496;52.042;6.812;2023-06-22T05:40:34;21.08;;;14.40;;
31966;SDS011;18496;52.042;6.812;2023-06-22T05:42:38;24.00;;;15.38;;
31966;SDS011;18496;52.042;6.812;2023-06-22T05:44:41;23.05;;;14.23;;
31966;SDS011;18496;52.042;6.812;2023-06-22T05:46:45;23.05;;;15.48;;
31966;SDS011;18496;52.042;6.812;2023-06-22T05:48:51;21.60;;;14.18;;
31966;SDS011;18496;52.042;6.812;2023-06-22T05:50:55;21.58;;;14.50;;
31966;SDS011;18496;52.042;6.812;2023-06-22T05:52:59;21.58;;;14.90;;
31966;SDS011;18496;52.042;6.812;2023-06-22T05:55:02;20.08;;;12.80;;
31966;SDS011;18496;52.042;6.812;2023-06-22T05:57:06;20.05;;;14.63;;
31966;SDS011;18496;52.042;6.812;2023-06-22T05:59:10;19.15;;;13.98;;
31966;SDS011;18496;52.042;6.812;2023-06-22T06:01:13;20.98;;;15.65;;
31966;SDS011;18496;52.042;6.812;2023-06-22T06:03:18;17.17;;;13.27;;
31966;SDS011;18496;52.042;6.812;2023-06-22T06:05:22;21.38;;;13.73;;
31966;SDS011;18496;52.042;6.812;2023-06-22T06:07:27;19.00;;;13.73;;
31966;SDS011;18496;52.042;6.812;2023-06-22T06:09:30;22.35;;;14.25;;
31966;SDS011;18496;52.042;6.812;2023-06-22T06:11:34;18.38;;;13.55;;
31966;SDS011;18496;52.042;6.812;2023-06-22T06:13:37;16.95;;;13.20;;
31966;SDS011;18496;52.042;6.812;2023-06-22T06:15:41;17.80;;;12.63;;
31966;SDS011;18496;52.042;6.812;2023-06-22T06:17:48;20.88;;;13.40;;
31966;SDS011;18496;52.042;6.812;2023-06-22T06:19:53;23.45;;;14.82;;
31966;SDS011;18496;52.042;6.812;2023-06-22T06:21:56;16.85;;;12.98;;
31966;SDS011;18496;52.042;6.812;2023-06-22T06:24:00;21.08;;;13.63;;
31966;SDS011;18496;52.042;6.812;2023-06-22T06:26:04;21.85;;;15.18;;
31966;SDS011;18496;52.042;6.812;2023-06-22T06:28:10;18.85;;;14.18;;
31966;SDS011;18496;52.042;6.812;2023-06-22T06:30:14;25.52;;;14.77;;
31966;SDS011;18496;52.042;6.812;2023-06-22T06:32:19;20.58;;;13.30;;
31966;SDS011;18496;52.042;6.812;2023-06-22T06:34:22;19.17;;;13.27;;
31966;SDS011;18496;52.042;6.812;2023-06-22T06:36:26;17.23;;;12.45;;
31966;SDS011;18496;52.042;6.812;2023-06-22T06:38:30;22.60;;;13.93;;
31966;SDS011;18496;52.042;6.812;2023-06-22T06:40:34;16.33;;;12.13;;
31966;SDS011;18496;52.042;6.812;2023-06-22T06:42:38;20.45;;;12.40;;
31966;SDS011;18496;52.042;6.812;2023-06-22T06:44:44;19.83;;;13.65;;
31966;SDS011;18496;52.042;6.812;2023-06-22T06:46:48;19.50;;;13.38;;
31966;SDS011;18496;52.042;6.812;2023-06-22T06:48:51;18.92;;;13.23;;
31966;SDS011;18496;52.042;6.812;2023-06-22T06:50:55;19.83;;;14.13;;
31966;SDS011;18496;52.042;6.812;2023-06-22T06:52:59;16.90;;;11.60;;
31966;SDS011;18496;52.042;6.812;2023-06-22T06:55:02;16.90;;;12.95;;
31966;SDS011;18496;52.042;6.812;2023-06-22T06:57:11;18.02;;;12.00;;
31966;SDS011;18496;52.042;6.812;2023-06-22T06:59:16;22.45;;;12.20;;
31966;SDS011;18496;52.042;6.812;2023-06-22T07:01:20;16.75;;;12.20;;
31966;SDS011;18496;52.042;6.812;2023-06-22T07:03:23;17.33;;;12.82;;
31966;SDS011;18496;52.042;6.812;2023-06-22T07:05:27;18.15;;;12.50;;
31966;SDS011;18496;52.042;6.812;2023-06-22T07:07:31;17.52;;;13.05;;
31966;SDS011;18496;52.042;6.812;2023-06-22T07:09:35;16.63;;;12.55;;
31966;SDS011;18496;52.042;6.812;2023-06-22T07:11:38;20.75;;;13.05;;
31966;SDS011;18496;52.042;6.812;2023-06-22T07:13:42;18.67;;;13.27;;
31966;SDS011;18496;52.042;6.812;2023-06-22T07:15:45;19.10;;;14.25;;
31966;SDS011;18496;52.042;6.812;2023-06-22T07:17:49;16.45;;;13.43;;
31966;SDS011;18496;52.042;6.812;2023-06-22T07:19:52;16.98;;;13.15;;
31966;SDS011;18496;52.042;6.812;2023-06-22T07:21:56;18.88;;;13.70;;
31966;SDS011;18496;52.042;6.812;2023-06-22T07:24:00;28.38;;;13.85;;
31966;SDS011;18496;52.042;6.812;2023-06-22T07:26:03;18.52;;;12.23;;
31966;SDS011;18496;52.042;6.812;2023-06-22T07:28:09;21.40;;;13.95;;
31966;SDS011;18496;52.042;6.812;2023-06-22T07:30:12;18.80;;;12.88;;
31966;SDS011;18496;52.042;6.812;2023-06-22T07:32:16;15.07;;;12.35;;
31966;SDS011;18496;52.042;6.812;2023-06-22T07:34:20;17.73;;;11.73;;
31966;SDS011;18496;52.042;6.812;2023-06-22T07:36:23;14.73;;;11.48;;
31966;SDS011;18496;52.042;6.812;2023-06-22T07:38:27;19.35;;;13.27;;
31966;SDS011;18496;52.042;6.812;2023-06-22T07:40:31;19.00;;;13.98;;
31966;SDS011;18496;52.042;6.812;2023-06-22T07:42:34;18.17;;;12.52;;
31966;SDS011;18496;52.042;6.812;2023-06-22T07:44:38;17.17;;;11.25;;
31966;SDS011;18496;52.042;6.812;2023-06-22T07:46:42;18.45;;;13.48;;
31966;SDS011;18496;52.042;6.812;2023-06-22T07:48:45;17.60;;;12.07;;
31966;SDS011;18496;52.042;6.812;2023-06-22T07:50:49;18.13;;;12.70;;
31966;SDS011;18496;52.042;6.812;2023-06-22T07:52:52;22.05;;;13.48;;
31966;SDS011;18496;52.042;6.812;2023-06-22T07:54:56;21.23;;;13.57;;
31966;SDS011;18496;52.042;6.812;2023-06-22T07:57:00;19.75;;;13.25;;
31966;SDS011;18496;52.042;6.812;2023-06-22T07:59:04;18.52;;;12.68;;
31966;SDS011;18496;52.042;6.812;2023-06-22T08:01:07;15.95;;;12.98;;
31966;SDS011;18496;52.042;6.812;2023-06-22T08:03:11;19.58;;;12.35;;
31966;SDS011;18496;52.042;6.812;2023-06-22T08:05:15;22.15;;;13.57;;
31966;SDS011;18496;52.042;6.812;2023-06-22T08:07:20;16.10;;;11.50;;
31966;SDS011;18496;52.042;6.812;2023-06-22T08:09:24;16.38;;;11.65;;
31966;SDS011;18496;52.042;6.812;2023-06-22T08:11:27;18.70;;;12.27;;
31966;SDS011;18496;52.042;6.812;2023-06-22T08:13:31;18.25;;;12.25;;
31966;SDS011;18496;52.042;6.812;2023-06-22T08:15:35;16.85;;;11.98;;
31966;SDS011;18496;52.042;6.812;2023-06-22T08:17:39;23.33;;;12.90;;
31966;SDS011;18496;52.042;6.812;2023-06-22T08:19:42;17.92;;;12.75;;
31966;SDS011;18496;52.042;6.812;2023-06-22T08:21:46;17.10;;;12.02;;
31966;SDS011;18496;52.042;6.812;2023-06-22T08:23:50;19.05;;;13.18;;
31966;SDS011;18496;52.042;6.812;2023-06-22T08:25:53;17.50;;;12.93;;
31966;SDS011;18496;52.042;6.812;2023-06-22T08:27:57;15.55;;;11.73;;
31966;SDS011;18496;52.042;6.812;2023-06-22T08:30:01;28.20;;;13.35;;
31966;SDS011;18496;52.042;6.812;2023-06-22T08:32:05;16.42;;;13.23;;
31966;SDS011;18496;52.042;6.812;2023-06-22T08:34:09;18.15;;;11.90;;
31966;SDS011;18496;52.042;6.812;2023-06-22T08:36:13;16.05;;;12.50;;
31966;SDS011;18496;52.042;6.812;2023-06-22T08:38:17;20.38;;;12.75;;
31966;SDS011;18496;52.042;6.812;2023-06-22T08:40:21;18.02;;;12.93;;
31966;SDS011;18496;52.042;6.812;2023-06-22T08:42:25;18.35;;;12.57;;
31966;SDS011;18496;52.042;6.812;2023-06-22T08:44:30;16.52;;;12.55;;
31966;SDS011;18496;52.042;6.812;2023-06-22T08:46:33;15.18;;;10.73;;
31966;SDS011;18496;52.042;6.812;2023-06-22T08:48:37;24.23;;;13.85;;
31966;SDS011;18496;52.042;6.812;2023-06-22T08:50:40;18.35;;;13.00;;
31966;SDS011;18496;52.042;6.812;2023-06-22T08:52:45;17.42;;;12.50;;
31966;SDS011;18496;52.042;6.812;2023-06-22T08:54:50;18.40;;;13.13;;
31966;SDS011;18496;52.042;6.812;2023-06-22T08:56:54;21.02;;;14.38;;
31966;SDS011;18496;52.042;6.812;2023-06-22T08:58:58;20.95;;;13.43;;
31966;SDS011;18496;52.042;6.812;2023-06-22T09:01:01;22.60;;;15.15;;
31966;SDS011;18496;52.042;6.812;2023-06-22T09:03:05;21.45;;;14.48;;
31966;SDS011;18496;52.042;6.812;2023-06-22T09:05:09;17.63;;;13.20;;
31966;SDS011;18496;52.042;6.812;2023-06-22T09:07:13;14.52;;;11.48;;
31966;SDS011;18496;52.042;6.812;2023-06-22T09:09:16;14.32;;;11.07;;
31966;SDS011;18496;52.042;6.812;2023-06-22T09:11:20;20.77;;;11.70;;
31966;SDS011;18496;52.042;6.812;2023-06-22T09:13:24;18.88;;;13.38;;
31966;SDS011;18496;52.042;6.812;2023-06-22T09:15:28;19.38;;;14.63;;
31966;SDS011;18496;52.042;6.812;2023-06-22T09:17:31;19.42;;;13.50;;
31966;SDS011;18496;52.042;6.812;2023-06-22T09:19:36;19.45;;;13.93;;
31966;SDS011;18496;52.042;6.812;2023-06-22T09:21:39;19.70;;;13.85;;
31966;SDS011;18496;52.042;6.812;2023-06-22T09:23:43;21.13;;;13.45;;
31966;SDS011;18496;52.042;6.812;2023-06-22T09:25:48;21.58;;;14.82;;
31966;SDS011;18496;52.042;6.812;2023-06-22T09:27:52;18.00;;;12.18;;
31966;SDS011;18496;52.042;6.812;2023-06-22T09:29:55;21.10;;;14.35;;
31966;SDS011;18496;52.042;6.812;2023-06-22T09:32:01;23.27;;;14.30;;
31966;SDS011;18496;52.042;6.812;2023-06-22T09:34:05;18.80;;;14.35;;
31966;SDS011;18496;52.042;6.812;2023-06-22T09:36:08;19.42;;;13.23;;
31966;SDS011;18496;52.042;6.812;2023-06-22T09:38:12;24.10;;;14.95;;
31966;SDS011;18496;52.042;6.812;2023-06-22T09:40:15;25.23;;;15.25;;
31966;SDS011;18496;52.042;6.812;2023-06-22T09:42:20;17.08;;;13.40;;
31966;SDS011;18496;52.042;6.812;2023-06-22T09:44:24;17.65;;;13.55;;
31966;SDS011;18496;52.042;6.812;2023-06-22T09:46:27;17.15;;;12.65;;
31966;SDS011;18496;52.042;6.812;2023-06-22T09:48:31;21.10;;;14.10;;
31966;SDS011;18496;52.042;6.812;2023-06-22T09:50:35;20.58;;;14.68;;
31966;SDS011;18496;52.042;6.812;2023-06-22T09:52:40;21.98;;;13.77;;
31966;SDS011;18496;52.042;6.812;2023-06-22T09:54:47;17.95;;;13.02;;
31966;SDS011;18496;52.042;6.812;2023-06-22T09:56:51;24.05;;;15.40;;
31966;SDS011;18496;52.042;6.812;2023-06-22T09:58:55;23.55;;;13.23;;
31966;SDS011;18496;52.042;6.812;2023-06-22T10:00:58;23.65;;;13.10;;
31966;SDS011;18496;52.042;6.812;2023-06-22T10:03:02;19.95;;;13.15;;
31966;SDS011;18496;52.042;6.812;2023-06-22T10:05:06;19.90;;;13.27;;
31966;SDS011;18496;52.042;6.812;2023-06-22T10:07:10;18.27;;;13.02;;
31966;SDS011;18496;52.042;6.812;2023-06-22T10:09:14;17.13;;;12.40;;
31966;SDS011;18496;52.042;6.812;2023-06-22T10:11:18;17.98;;;13.95;;
31966;SDS011;18496;52.042;6.812;2023-06-22T10:13:21;17.33;;;12.68;;
31966;SDS011;18496;52.042;6.812;2023-06-22T10:15:25;19.95;;;13.10;;
31966;SDS011;18496;52.042;6.812;2023-06-22T10:17:30;18.10;;;12.38;;
31966;SDS011;18496;52.042;6.812;2023-06-22T10:19:33;23.23;;;13.35;;
31966;SDS011;18496;52.042;6.812;2023-06-22T10:21:40;22.33;;;13.90;;
31966;SDS011;18496;52.042;6.812;2023-06-22T10:23:43;22.42;;;13.40;;
31966;SDS011;18496;52.042;6.812;2023-06-22T10:25:47;20.35;;;13.00;;
31966;SDS011;18496;52.042;6.812;2023-06-22T10:27:51;14.27;;;11.27;;
31966;SDS011;18496;52.042;6.812;2023-06-22T10:29:54;15.60;;;12.88;;
31966;SDS011;18496;52.042;6.812;2023-06-22T10:31:58;19.52;;;12.10;;
31966;SDS011;18496;52.042;6.812;2023-06-22T10:34:02;18.50;;;12.68;;
31966;SDS011;18496;52.042;6.812;2023-06-22T10:36:05;16.77;;;11.85;;
31966;SDS011;18496;52.042;6.812;2023-06-22T10:38:09;17.58;;;12.95;;
31966;SDS011;18496;52.042;6.812;2023-06-22T10:40:13;21.10;;;14.30;;
31966;SDS011;18496;52.042;6.812;2023-06-22T10:42:18;18.30;;;13.90;;
31966;SDS011;18496;52.042;6.812;2023-06-22T10:44:21;18.50;;;13.82;;
31966;SDS011;18496;52.042;6.812;2023-06-22T10:46:25;20.55;;;13.80;;
31966;SDS011;18496;52.042;6.812;2023-06-22T10:48:29;18.13;;;13.05;;
31966;SDS011;18496;52.042;6.812;2023-06-22T10:50:32;18.45;;;12.43;;
31966;SDS011;18496;52.042;6.812;2023-06-22T10:52:36;20.17;;;12.38;;
31966;SDS011;18496;52.042;6.812;2023-06-22T10:54:40;20.15;;;12.27;;
31966;SDS011;18496;52.042;6.812;2023-06-22T10:56:44;18.50;;;12.38;;
31966;SDS011;18496;52.042;6.812;2023-06-22T10:58:48;18.27;;;13.40;;
31966;SDS011;18496;52.042;6.812;2023-06-22T11:00:51;16.77;;;12.18;;
31966;SDS011;18496;52.042;6.812;2023-06-22T11:02:55;15.50;;;11.75;;
31966;SDS011;18496;52.042;6.812;2023-06-22T11:04:59;20.55;;;13.68;;
31966;SDS011;18496;52.042;6.812;2023-06-22T11:07:03;20.73;;;13.30;;
31966;SDS011;18496;52.042;6.812;2023-06-22T11:09:07;23.10;;;12.95;;
31966;SDS011;18496;52.042;6.812;2023-06-22T11:11:11;18.00;;;13.55;;
31966;SDS011;18496;52.042;6.812;2023-06-22T11:13:14;16.63;;;12.27;;
31966;SDS011;18496;52.042;6.812;2023-06-22T11:15:18;16.75;;;13.05;;
31966;SDS011;18496;52.042;6.812;2023-06-22T11:17:22;22.25;;;13.63;;
31966;SDS011;18496;52.042;6.812;2023-06-22T11:19:25;20.25;;;14.65;;
31966;SDS011;18496;52.042;6.812;2023-06-22T11:21:29;28.15;;;13.90;;
31966;SDS011;18496;52.042;6.812;2023-06-22T11:23:32;19.98;;;13.38;;
31966;SDS011;18496;52.042;6.812;2023-06-22T11:25:36;18.67;;;13.32;;
31966;SDS011;18496;52.042;6.812;2023-06-22T11:27:41;18.48;;;13.50;;
31966;SDS011;18496;52.042;6.812;2023-06-22T11:29:44;23.75;;;15.13;;
31966;SDS011;18496;52.042;6.812;2023-06-22T11:31:48;19.45;;;13.95;;
31966;SDS011;18496;52.042;6.812;2023-06-22T11:33:52;19.45;;;13.23;;
31966;SDS011;18496;52.042;6.812;2023-06-22T11:35:56;20.40;;;14.57;;
31966;SDS011;18496;52.042;6.812;2023-06-22T11:38:00;17.83;;;14.18;;
31966;SDS011;18496;52.042;6.812;2023-06-22T11:40:04;22.63;;;14.07;;
31966;SDS011;18496;52.042;6.812;2023-06-22T11:42:09;21.83;;;14.40;;
31966;SDS011;18496;52.042;6.812;2023-06-22T11:44:12;22.38;;;13.88;;
31966;SDS011;18496;52.042;6.812;2023-06-22T11:46:16;18.48;;;13.75;;
31966;SDS011;18496;52.042;6.812;2023-06-22T11:48:20;20.33;;;13.90;;
31966;SDS011;18496;52.042;6.812;2023-06-22T11:50:23;16.63;;;12.85;;
31966;SDS011;18496;52.042;6.812;2023-06-22T11:52:27;21.95;;;14.98;;
31966;SDS011;18496;52.042;6.812;2023-06-22T11:54:31;18.45;;;14.35;;
31966;SDS011;18496;52.042;6.812;2023-06-22T11:56:34;20.60;;;14.20;;
31966;SDS011;18496;52.042;6.812;2023-06-22T11:58:38;20.80;;;13.90;;
31966;SDS011;18496;52.042;6.812;2023-06-22T12:00:42;24.35;;;13.98;;
31966;SDS011;18496;52.042;6.812;2023-06-22T12:02:45;17.33;;;13.90;;
31966;SDS011;18496;52.042;6.812;2023-06-22T12:04:49;23.23;;;16.80;;
31966;SDS011;18496;52.042;6.812;2023-06-22T12:06:55;23.83;;;14.82;;
31966;SDS011;18496;52.042;6.812;2023-06-22T12:08:59;21.13;;;14.07;;
31966;SDS011;18496;52.042;6.812;2023-06-22T12:11:02;20.77;;;14.50;;
31966;SDS011;18496;52.042;6.812;2023-06-22T12:13:06;19.13;;;13.82;;
31966;SDS011;18496;52.042;6.812;2023-06-22T12:15:10;21.95;;;14.90;;